sensor_id;sensor_type;location;lat;lon;timestamp;pressure;altitude;pressure_sealevel;temperature;humidity
32324;BME280;25666;44.350;9.222;2023-07-29T00:01:01;101489.63;;;23.95;100.00
32324;BME280;25666;44.350;9.222;2023-07-29T00:03:26;101494.53;;;23.91;100.00
32324;BME280;25666;44.350;9.222;2023-07-29T00:05:52;101499.84;;;23.89;100.00
32324;BME280;25666;44.350;9.222;2023-07-29T00:08:18;101491.66;;;23.94;100.00
32324;BME280;25666;44.350;9.222;2023-07-29T00:10:43;101492.13;;;23.89;100.00
32324;BME280;25666;44.350;9.222;2023-07-29T00:13:09;101486.03;;;23.87;100.00
32324;BME280;25666;44.350;9.222;2023-07-29T00:15:34;101491.72;;;23.87;100.00
32324;BME280;25666;44.350;9.222;2023-07-29T00:18:02;101490.50;;;23.88;100.00
32324;BME280;25666;44.350;9.222;2023-07-29T00:20:29;101488.44;;;23.92;100.00
32324;BME280;25666;44.350;9.222;2023-07-29T00:22:54;101481.13;;;23.91;100.00
32324;BME280;25666;44.350;9.222;2023-07-29T00:25:21;101486.88;;;23.84;100.00
32324;BME280;25666;44.350;9.222;2023-07-29T00:27:47;101479.63;;;23.80;100.00
32324;BME280;25666;44.350;9.222;2023-07-29T00:30:19;101484.22;;;23.70;100.00
32324;BME280;25666;44.350;9.222;2023-07-29T00:32:44;101485.81;;;23.71;100.00
32324;BME280;25666;44.350;9.222;2023-07-29T00:35:14;101485.47;;;23.66;100.00
32324;BME280;25666;44.350;9.222;2023-07-29T00:37:40;101484.94;;;23.78;100.00
32324;BME280;25666;44.350;9.222;2023-07-29T00:40:13;101474.00;;;23.76;100.00
32324;BME280;25666;44.350;9.222;2023-07-29T00:42:40;101470.66;;;23.81;100.00
32324;BME280;25666;44.350;9.222;2023-07-29T00:45:09;101473.91;;;23.83;100.00
32324;BME280;25666;44.350;9.222;2023-07-29T00:47:34;101471.16;;;23.76;100.00
32324;BME280;25666;44.350;9.222;2023-07-29T00:50:00;101467.47;;;23.79;100.00
32324;BME280;25666;44.350;9.222;2023-07-29T00:52:26;101473.94;;;23.80;100.00
32324;BME280;25666;44.350;9.222;2023-07-29T00:54:53;101476.72;;;23.87;100.00
32324;BME280;25666;44.350;9.222;2023-07-29T00:57:19;101476.72;;;23.87;100.00
32324;BME280;25666;44.350;9.222;2023-07-29T00:59:44;101479.59;;;23.83;100.00
32324;BME280;25666;44.350;9.222;2023-07-29T01:02:10;101475.47;;;23.88;100.00
32324;BME280;25666;44.350;9.222;2023-07-29T01:04:36;101473.81;;;23.90;100.00
32324;BME280;25666;44.350;9.222;2023-07-29T01:10:09;101481.75;;;23.72;100.00
32324;BME280;25666;44.350;9.222;2023-07-29T01:12:53;101485.41;;;23.73;100.00
32324;BME280;25666;44.350;9.222;2023-07-29T01:17:56;101490.28;;;23.72;100.00
32324;BME280;25666;44.350;9.222;2023-07-29T01:20:25;101487.31;;;23.83;100.00
32324;BME280;25666;44.350;9.222;2023-07-29T01:22:51;101478.06;;;23.75;100.00
32324;BME280;25666;44.350;9.222;2023-07-29T01:25:17;101483.28;;;23.80;100.00
32324;BME280;25666;44.350;9.222;2023-07-29T01:27:45;101479.69;;;23.76;100.00
32324;BME280;25666;44.350;9.222;2023-07-29T01:30:11;101480.00;;;23.82;100.00
32324;BME280;25666;44.350;9.222;2023-07-29T01:37:54;101480.09;;;23.75;100.00
32324;BME280;25666;44.350;9.222;2023-07-29T01:40:22;101482.47;;;23.80;100.00
32324;BME280;25666;44.350;9.222;2023-07-29T01:42:49;101486.91;;;23.81;100.00
32324;BME280;25666;44.350;9.222;2023-07-29T01:45:14;101489.34;;;23.82;100.00
32324;BME280;25666;44.350;9.222;2023-07-29T01:47:40;101479.97;;;23.85;100.00
32324;BME280;25666;44.350;9.222;2023-07-29T01:50:07;101483.69;;;23.79;100.00
32324;BME280;25666;44.350;9.222;2023-07-29T01:52:33;101488.63;;;23.75;100.00
32324;BME280;25666;44.350;9.222;2023-07-29T01:54:59;101476.91;;;23.69;100.00
32324;BME280;25666;44.350;9.222;2023-07-29T01:57:24;101476.53;;;23.67;100.00
32324;BME280;25666;44.350;9.222;2023-07-29T01:59:50;101478.91;;;23.72;100.00
32324;BME280;25666;44.350;9.222;2023-07-29T02:02:16;101480.91;;;23.75;100.00
32324;BME280;25666;44.350;9.222;2023-07-29T02:04:41;101478.81;;;23.79;100.00
32324;BME280;25666;44.350;9.222;2023-07-29T02:07:07;101469.50;;;23.79;100.00
32324;BME280;25666;44.350;9.222;2023-07-29T02:09:32;101470.66;;;23.81;100.00
32324;BME280;25666;44.350;9.222;2023-07-29T02:11:58;101477.16;;;23.82;100.00
32324;BME280;25666;44.350;9.222;2023-07-29T02:14:23;101474.00;;;23.76;100.00
32324;BME280;25666;44.350;9.222;2023-07-29T02:16:49;101477.28;;;23.71;100.00
32324;BME280;25666;44.350;9.222;2023-07-29T02:19:15;101480.22;;;23.64;100.00
32324;BME280;25666;44.350;9.222;2023-07-29T02:21:41;101481.03;;;23.65;100.00
32324;BME280;25666;44.350;9.222;2023-07-29T02:24:07;101474.09;;;23.66;100.00
32324;BME280;25666;44.350;9.222;2023-07-29T02:26:32;101467.59;;;23.65;100.00
32324;BME280;25666;44.350;9.222;2023-07-29T02:28:58;101464.75;;;23.65;100.00
32324;BME280;25666;44.350;9.222;2023-07-29T02:31:24;101468.50;;;23.59;100.00
32324;BME280;25666;44.350;9.222;2023-07-29T02:33:50;101477.84;;;23.56;100.00
32324;BME280;25666;44.350;9.222;2023-07-29T02:36:16;101478.28;;;23.54;100.00
32324;BME280;25666;44.350;9.222;2023-07-29T02:38:42;101482.66;;;23.62;100.00
32324;BME280;25666;44.350;9.222;2023-07-29T02:41:09;101483.50;;;23.59;100.00
32324;BME280;25666;44.350;9.222;2023-07-29T02:43:37;101489.94;;;23.67;100.00
32324;BME280;25666;44.350;9.222;2023-07-29T02:46:03;101480.19;;;23.68;100.00
32324;BME280;25666;44.350;9.222;2023-07-29T02:48:28;101484.72;;;23.62;100.00
32324;BME280;25666;44.350;9.222;2023-07-29T02:50:55;101483.47;;;23.63;100.00
32324;BME280;25666;44.350;9.222;2023-07-29T02:53:22;101464.94;;;23.48;100.00
32324;BME280;25666;44.350;9.222;2023-07-29T02:55:48;101472.16;;;23.56;100.00
32324;BME280;25666;44.350;9.222;2023-07-29T02:58:13;101465.72;;;23.52;100.00
32324;BME280;25666;44.350;9.222;2023-07-29T03:00:39;101463.63;;;23.56;100.00
32324;BME280;25666;44.350;9.222;2023-07-29T03:03:07;101455.53;;;23.58;100.00
32324;BME280;25666;44.350;9.222;2023-07-29T03:05:34;101450.25;;;23.56;100.00
32324;BME280;25666;44.350;9.222;2023-07-29T03:07:59;101444.97;;;23.58;100.00
32324;BME280;25666;44.350;9.222;2023-07-29T03:10:25;101456.44;;;23.48;100.00
32324;BME280;25666;44.350;9.222;2023-07-29T03:12:50;101459.34;;;23.37;100.00
32324;BME280;25666;44.350;9.222;2023-07-29T03:15:16;101458.94;;;23.38;100.00
32324;BME280;25666;44.350;9.222;2023-07-29T03:17:42;101465.84;;;23.34;100.00
32324;BME280;25666;44.350;9.222;2023-07-29T03:20:07;101464.59;;;23.42;100.00
32324;BME280;25666;44.350;9.222;2023-07-29T03:22:33;101468.25;;;23.39;100.00
32324;BME280;25666;44.350;9.222;2023-07-29T03:24:58;101467.44;;;23.38;100.00
32324;BME280;25666;44.350;9.222;2023-07-29T03:27:24;101478.31;;;23.51;100.00
32324;BME280;25666;44.350;9.222;2023-07-29T03:29:49;101460.56;;;23.43;100.00
32324;BME280;25666;44.350;9.222;2023-07-29T03:32:15;101472.28;;;23.45;100.00
32324;BME280;25666;44.350;9.222;2023-07-29T03:34:40;101465.81;;;23.37;100.00
32324;BME280;25666;44.350;9.222;2023-07-29T03:37:06;101473.50;;;23.44;100.00
32324;BME280;25666;44.350;9.222;2023-07-29T03:39:32;101476.75;;;23.46;100.00
32324;BME280;25666;44.350;9.222;2023-07-29T03:41:58;101479.16;;;23.48;100.00
32324;BME280;25666;44.350;9.222;2023-07-29T03:44:23;101479.13;;;23.51;100.00
32324;BME280;25666;44.350;9.222;2023-07-29T03:46:49;101473.06;;;23.49;100.00
32324;BME280;25666;44.350;9.222;2023-07-29T03:49:14;101472.63;;;23.51;100.00
32324;BME280;25666;44.350;9.222;2023-07-29T03:51:40;101471.47;;;23.44;100.00
32324;BME280;25666;44.350;9.222;2023-07-29T03:54:06;101470.69;;;23.40;100.00
32324;BME280;25666;44.350;9.222;2023-07-29T03:56:32;101469.00;;;23.46;100.00
32324;BME280;25666;44.350;9.222;2023-07-29T03:59:04;101475.00;;;23.56;100.00
32324;BME280;25666;44.350;9.222;2023-07-29T04:01:30;101470.63;;;23.48;100.00
32324;BME280;25666;44.350;9.222;2023-07-29T04:03:56;101466.59;;;23.45;100.00
32324;BME280;25666;44.350;9.222;2023-07-29T04:06:21;101470.22;;;23.49;100.00
32324;BME280;25666;44.350;9.222;2023-07-29T04:08:48;101477.13;;;23.48;100.00
32324;BME280;25666;44.350;9.222;2023-07-29T04:11:14;101481.19;;;23.47;100.00
32324;BME280;25666;44.350;9.222;2023-07-29T04:13:40;101475.94;;;23.45;100.00
32324;BME280;25666;44.350;9.222;2023-07-29T04:16:06;101466.56;;;23.49;100.00
32324;BME280;25666;44.350;9.222;2023-07-29T04:18:32;101465.84;;;23.34;100.00
32324;BME280;25666;44.350;9.222;2023-07-29T04:20:58;101465.00;;;23.37;100.00
32324;BME280;25666;44.350;9.222;2023-07-29T04:23:24;101464.13;;;23.47;100.00
32324;BME280;25666;44.350;9.222;2023-07-29T04:25:49;101457.66;;;23.46;100.00
32324;BME280;25666;44.350;9.222;2023-07-29T04:28:15;101467.03;;;23.40;100.00
32324;BME280;25666;44.350;9.222;2023-07-29T04:30:41;101462.56;;;23.46;100.00
32324;BME280;25666;44.350;9.222;2023-07-29T04:33:07;101464.56;;;23.49;100.00
32324;BME280;25666;44.350;9.222;2023-07-29T04:35:32;101454.47;;;23.41;100.00
32324;BME280;25666;44.350;9.222;2023-07-29T04:37:58;101467.75;;;23.51;100.00
32324;BME280;25666;44.350;9.222;2023-07-29T04:40:23;101472.13;;;23.59;100.00
32324;BME280;25666;44.350;9.222;2023-07-29T04:42:50;101467.28;;;23.56;100.00
32324;BME280;25666;44.350;9.222;2023-07-29T04:45:16;101466.38;;;23.66;100.00
32324;BME280;25666;44.350;9.222;2023-07-29T04:47:42;101472.06;;;23.66;100.00
32324;BME280;25666;44.350;9.222;2023-07-29T04:50:07;101462.41;;;23.57;100.00
32324;BME280;25666;44.350;9.222;2023-07-29T04:52:33;101466.88;;;23.58;100.00
32324;BME280;25666;44.350;9.222;2023-07-29T04:54:59;101475.41;;;23.58;100.00
32324;BME280;25666;44.350;9.222;2023-07-29T04:57:24;101479.47;;;23.57;100.00
32324;BME280;25666;44.350;9.222;2023-07-29T04:59:50;101492.47;;;23.58;100.00
32324;BME280;25666;44.350;9.222;2023-07-29T05:02:15;101498.97;;;23.58;100.00
32324;BME280;25666;44.350;9.222;2023-07-29T05:04:41;101490.00;;;23.60;100.00
32324;BME280;25666;44.350;9.222;2023-07-29T05:07:06;101499.69;;;23.66;100.00
32324;BME280;25666;44.350;9.222;2023-07-29T05:09:32;101494.88;;;23.59;100.00
32324;BME280;25666;44.350;9.222;2023-07-29T05:11:57;101491.63;;;23.61;100.00
32324;BME280;25666;44.350;9.222;2023-07-29T05:14:23;101488.34;;;23.62;100.00
32324;BME280;25666;44.350;9.222;2023-07-29T05:16:49;101485.16;;;23.57;100.00
32324;BME280;25666;44.350;9.222;2023-07-29T05:19:14;101485.81;;;23.71;100.00
32324;BME280;25666;44.350;9.222;2023-07-29T05:21:40;101489.72;;;23.84;100.00
32324;BME280;25666;44.350;9.222;2023-07-29T05:24:06;101491.72;;;23.87;100.00
32324;BME280;25666;44.350;9.222;2023-07-29T05:26:31;101489.31;;;23.86;100.00
32324;BME280;25666;44.350;9.222;2023-07-29T05:28:57;101492.97;;;23.86;100.00
32324;BME280;25666;44.350;9.222;2023-07-29T05:31:22;101494.97;;;23.89;100.00
32324;BME280;25666;44.350;9.222;2023-07-29T05:33:48;101496.63;;;23.87;100.00
32324;BME280;25666;44.350;9.222;2023-07-29T05:36:14;101484.34;;;23.93;100.00
32324;BME280;25666;44.350;9.222;2023-07-29T05:38:39;101482.78;;;23.89;100.00
32324;BME280;25666;44.350;9.222;2023-07-29T05:41:05;101484.41;;;23.90;100.00
32324;BME280;25666;44.350;9.222;2023-07-29T05:43:30;101494.56;;;23.87;100.00
32324;BME280;25666;44.350;9.222;2023-07-29T05:45:56;101493.38;;;23.85;100.00
32324;BME280;25666;44.350;9.222;2023-07-29T05:48:22;101490.13;;;23.86;100.00
32324;BME280;25666;44.350;9.222;2023-07-29T05:50:47;101501.88;;;23.88;100.00
32324;BME280;25666;44.350;9.222;2023-07-29T05:53:14;101498.97;;;23.95;100.00
32324;BME280;25666;44.350;9.222;2023-07-29T05:55:39;101501.41;;;23.93;100.00
32324;BME280;25666;44.350;9.222;2023-07-29T05:58:05;101507.44;;;23.99;100.00
32324;BME280;25666;44.350;9.222;2023-07-29T06:00:31;101507.41;;;24.03;100.00
32324;BME280;25666;44.350;9.222;2023-07-29T06:02:59;101519.28;;;23.94;100.00
32324;BME280;25666;44.350;9.222;2023-07-29T06:05:24;101506.69;;;23.95;100.00
32324;BME280;25666;44.350;9.222;2023-07-29T06:07:51;101509.91;;;23.97;100.00
32324;BME280;25666;44.350;9.222;2023-07-29T06:10:16;101518.56;;;23.86;100.00
32324;BME280;25666;44.350;9.222;2023-07-29T06:12:45;101518.03;;;23.98;100.00
32324;BME280;25666;44.350;9.222;2023-07-29T06:15:11;101521.47;;;24.17;100.00
32324;BME280;25666;44.350;9.222;2023-07-29T06:17:38;101519.69;;;24.30;100.00
32324;BME280;25666;44.350;9.222;2023-07-29T06:20:04;101519.22;;;24.35;100.00
32324;BME280;25666;44.350;9.222;2023-07-29T06:22:31;101520.47;;;24.34;100.00
32324;BME280;25666;44.350;9.222;2023-07-29T06:24:57;101515.16;;;24.36;100.00
32324;BME280;25666;44.350;9.222;2023-07-29T06:27:22;101514.63;;;24.44;100.00
32324;BME280;25666;44.350;9.222;2023-07-29T06:29:50;101509.59;;;24.56;100.00
32324;BME280;25666;44.350;9.222;2023-07-29T06:32:15;101508.53;;;24.73;100.00
32324;BME280;25666;44.350;9.222;2023-07-29T06:34:41;101515.69;;;24.84;100.00
32324;BME280;25666;44.350;9.222;2023-07-29T06:37:06;101511.53;;;24.92;100.00
32324;BME280;25666;44.350;9.222;2023-07-29T06:39:31;101512.69;;;24.95;100.00
32324;BME280;25666;44.350;9.222;2023-07-29T06:41:57;101506.19;;;24.94;100.00
32324;BME280;25666;44.350;9.222;2023-07-29T06:44:23;101508.88;;;25.05;100.00
32324;BME280;25666;44.350;9.222;2023-07-29T06:46:48;101509.25;;;25.07;100.00
32324;BME280;25666;44.350;9.222;2023-07-29T06:49:14;101512.41;;;25.13;100.00
32324;BME280;25666;44.350;9.222;2023-07-29T06:51:40;101504.44;;;25.27;100.00
32324;BME280;25666;44.350;9.222;2023-07-29T06:54:05;101509.59;;;25.36;100.00
32324;BME280;25666;44.350;9.222;2023-07-29T06:56:31;101510.75;;;25.38;100.00
32324;BME280;25666;44.350;9.222;2023-07-29T06:58:57;101507.03;;;25.41;100.00
32324;BME280;25666;44.350;9.222;2023-07-29T07:01:22;101503.97;;;25.55;100.00
32324;BME280;25666;44.350;9.222;2023-07-29T07:03:48;101507.56;;;26.02;100.00
32324;BME280;25666;44.350;9.222;2023-07-29T07:06:13;101509.72;;;25.95;100.00
32324;BME280;25666;44.350;9.222;2023-07-29T07:08:39;101507.53;;;25.83;100.00
32324;BME280;25666;44.350;9.222;2023-07-29T07:11:04;101504.56;;;25.90;100.00
32324;BME280;25666;44.350;9.222;2023-07-29T07:13:30;101502.53;;;26.30;100.00
32324;BME280;25666;44.350;9.222;2023-07-29T07:15:56;101502.88;;;27.03;100.00
32324;BME280;25666;44.350;9.222;2023-07-29T07:18:21;101478.28;;;30.85;100.00
32324;BME280;25666;44.350;9.222;2023-07-29T07:20:50;101482.84;;;28.67;100.00
32324;BME280;25666;44.350;9.222;2023-07-29T07:23:17;101490.84;;;27.89;100.00
32324;BME280;25666;44.350;9.222;2023-07-29T07:25:46;101488.97;;;28.40;100.00
32324;BME280;25666;44.350;9.222;2023-07-29T07:28:11;101490.63;;;29.17;100.00
32324;BME280;25666;44.350;9.222;2023-07-29T07:30:40;101490.56;;;28.00;100.00
32324;BME280;25666;44.350;9.222;2023-07-29T07:33:08;101490.28;;;27.94;100.00
32324;BME280;25666;44.350;9.222;2023-07-29T07:35:34;101491.47;;;28.38;100.00
32324;BME280;25666;44.350;9.222;2023-07-29T07:37:59;101495.03;;;28.30;100.00
32324;BME280;25666;44.350;9.222;2023-07-29T07:40:27;101482.19;;;31.00;100.00
32324;BME280;25666;44.350;9.222;2023-07-29T07:42:53;101476.28;;;29.04;100.00
32324;BME280;25666;44.350;9.222;2023-07-29T07:45:19;101473.09;;;32.23;100.00
32324;BME280;25666;44.350;9.222;2023-07-29T07:47:44;101468.94;;;32.06;100.00
32324;BME280;25666;44.350;9.222;2023-07-29T07:50:10;101462.16;;;30.04;100.00
32324;BME280;25666;44.350;9.222;2023-07-29T07:52:35;101464.59;;;35.56;100.00
32324;BME280;25666;44.350;9.222;2023-07-29T07:55:01;101468.09;;;37.62;96.15
32324;BME280;25666;44.350;9.222;2023-07-29T07:57:27;101468.81;;;33.35;100.00
32324;BME280;25666;44.350;9.222;2023-07-29T07:59:52;101461.66;;;36.99;99.38
32324;BME280;25666;44.350;9.222;2023-07-29T08:02:18;101467.56;;;34.13;100.00
32324;BME280;25666;44.350;9.222;2023-07-29T08:04:44;101456.59;;;34.46;100.00
32324;BME280;25666;44.350;9.222;2023-07-29T08:07:09;101453.56;;;36.00;100.00
32324;BME280;25666;44.350;9.222;2023-07-29T08:09:34;101453.19;;;34.77;100.00
32324;BME280;25666;44.350;9.222;2023-07-29T08:12:00;101466.53;;;33.06;100.00
32324;BME280;25666;44.350;9.222;2023-07-29T08:14:25;101462.72;;;29.77;100.00
32324;BME280;25666;44.350;9.222;2023-07-29T08:16:52;101471.34;;;28.54;100.00
32324;BME280;25666;44.350;9.222;2023-07-29T08:19:17;101471.59;;;28.47;100.00
32324;BME280;25666;44.350;9.222;2023-07-29T08:21:43;101472.00;;;28.33;100.00
32324;BME280;25666;44.350;9.222;2023-07-29T08:24:08;101465.63;;;28.00;100.00
32324;BME280;25666;44.350;9.222;2023-07-29T08:26:34;101478.97;;;27.46;100.00
32324;BME280;25666;44.350;9.222;2023-07-29T08:28:59;101484.00;;;27.09;100.00
32324;BME280;25666;44.350;9.222;2023-07-29T08:31:25;101483.16;;;26.93;100.00
32324;BME280;25666;44.350;9.222;2023-07-29T08:33:50;101481.00;;;26.81;100.00
32324;BME280;25666;44.350;9.222;2023-07-29T08:36:16;101485.13;;;26.60;100.00
32324;BME280;25666;44.350;9.222;2023-07-29T08:38:41;101486.00;;;26.57;100.00
32324;BME280;25666;44.350;9.222;2023-07-29T08:41:19;101497.06;;;26.55;100.00
32324;BME280;25666;44.350;9.222;2023-07-29T08:43:52;101492.59;;;26.54;100.00
32324;BME280;25666;44.350;9.222;2023-07-29T08:46:19;101491.16;;;26.46;100.00
32324;BME280;25666;44.350;9.222;2023-07-29T08:48:45;101497.75;;;26.63;100.00
32324;BME280;25666;44.350;9.222;2023-07-29T08:51:11;101498.97;;;26.61;100.00
32324;BME280;25666;44.350;9.222;2023-07-29T08:53:38;101505.19;;;26.56;100.00
32324;BME280;25666;44.350;9.222;2023-07-29T08:56:05;101495.59;;;26.67;100.00
32324;BME280;25666;44.350;9.222;2023-07-29T08:58:31;101501.13;;;26.74;100.00
32324;BME280;25666;44.350;9.222;2023-07-29T09:00:57;101501.56;;;26.72;100.00
32324;BME280;25666;44.350;9.222;2023-07-29T09:03:23;101499.75;;;26.82;100.00
32324;BME280;25666;44.350;9.222;2023-07-29T09:05:48;101504.34;;;26.76;100.00
32324;BME280;25666;44.350;9.222;2023-07-29T09:08:15;101504.69;;;26.81;100.00
32324;BME280;25666;44.350;9.222;2023-07-29T09:10:41;101509.59;;;26.81;100.00
32324;BME280;25666;44.350;9.222;2023-07-29T09:13:07;101512.09;;;26.95;100.00
32324;BME280;25666;44.350;9.222;2023-07-29T09:15:35;101506.06;;;27.25;100.00
32324;BME280;25666;44.350;9.222;2023-07-29T09:18:19;101507.81;;;27.19;100.00
32324;BME280;25666;44.350;9.222;2023-07-29T09:20:48;101504.25;;;27.15;100.00
32324;BME280;25666;44.350;9.222;2023-07-29T09:23:14;101505.22;;;27.08;100.00
32324;BME280;25666;44.350;9.222;2023-07-29T09:25:40;101514.06;;;27.14;100.00
32324;BME280;25666;44.350;9.222;2023-07-29T09:28:11;101511.28;;;27.10;100.00
32324;BME280;25666;44.350;9.222;2023-07-29T09:30:42;101513.88;;;27.05;100.00
32324;BME280;25666;44.350;9.222;2023-07-29T09:33:09;101511.75;;;26.93;100.00
32324;BME280;25666;44.350;9.222;2023-07-29T09:35:37;101518.25;;;26.93;100.00
32324;BME280;25666;44.350;9.222;2023-07-29T09:38:04;101515.47;;;26.90;100.00
32324;BME280;25666;44.350;9.222;2023-07-29T09:40:38;101519.41;;;26.96;100.00
32324;BME280;25666;44.350;9.222;2023-07-29T09:43:04;101515.16;;;27.36;100.00
32324;BME280;25666;44.350;9.222;2023-07-29T09:45:33;101518.53;;;27.63;100.00
32324;BME280;25666;44.350;9.222;2023-07-29T09:47:58;101516.56;;;27.60;100.00
32324;BME280;25666;44.350;9.222;2023-07-29T09:50:25;101524.44;;;27.40;100.00
32324;BME280;25666;44.350;9.222;2023-07-29T09:52:51;101512.66;;;27.54;100.00
32324;BME280;25666;44.350;9.222;2023-07-29T09:55:19;101508.81;;;27.45;100.00
32324;BME280;25666;44.350;9.222;2023-07-29T09:57:45;101510.94;;;27.57;100.00
32324;BME280;25666;44.350;9.222;2023-07-29T10:00:11;101516.16;;;27.46;100.00
32324;BME280;25666;44.350;9.222;2023-07-29T10:02:42;101515.50;;;27.54;100.00
32324;BME280;25666;44.350;9.222;2023-07-29T10:05:09;101520.16;;;27.64;100.00
32324;BME280;25666;44.350;9.222;2023-07-29T10:07:39;101510.91;;;27.73;100.00
32324;BME280;25666;44.350;9.222;2023-07-29T10:10:06;101517.09;;;27.72;100.00
32324;BME280;25666;44.350;9.222;2023-07-29T10:12:33;101516.22;;;27.42;100.00
32324;BME280;25666;44.350;9.222;2023-07-29T10:15:01;101511.47;;;27.68;100.00
32324;BME280;25666;44.350;9.222;2023-07-29T10:17:28;101515.16;;;27.69;100.00
32324;BME280;25666;44.350;9.222;2023-07-29T10:19:58;101511.59;;;28.09;100.00
32324;BME280;25666;44.350;9.222;2023-07-29T10:22:29;101523.84;;;27.94;100.00
32324;BME280;25666;44.350;9.222;2023-07-29T10:25:03;101515.63;;;28.25;100.00
32324;BME280;25666;44.350;9.222;2023-07-29T10:27:35;101516.16;;;28.19;100.00
32324;BME280;25666;44.350;9.222;2023-07-29T10:32:47;101511.81;;;28.15;100.00
32324;BME280;25666;44.350;9.222;2023-07-29T10:35:15;101515.75;;;28.34;100.00
32324;BME280;25666;44.350;9.222;2023-07-29T10:37:41;101509.72;;;28.44;100.00
32324;BME280;25666;44.350;9.222;2023-07-29T10:40:11;101503.09;;;28.06;100.00
32324;BME280;25666;44.350;9.222;2023-07-29T10:42:38;101502.53;;;28.11;100.00
32324;BME280;25666;44.350;9.222;2023-07-29T10:45:20;101505.53;;;28.20;100.00
32324;BME280;25666;44.350;9.222;2023-07-29T10:47:45;101508.63;;;28.13;100.00
32324;BME280;25666;44.350;9.222;2023-07-29T10:50:21;101502.66;;;28.20;100.00
32324;BME280;25666;44.350;9.222;2023-07-29T10:52:51;101502.53;;;28.11;100.00
32324;BME280;25666;44.350;9.222;2023-07-29T10:57:49;101500.59;;;28.21;100.00
32324;BME280;25666;44.350;9.222;2023-07-29T11:00:15;101495.38;;;28.03;100.00
32324;BME280;25666;44.350;9.222;2023-07-29T11:02:41;101492.50;;;27.74;100.00
32324;BME280;25666;44.350;9.222;2023-07-29T11:05:15;101501.09;;;27.74;100.00
32324;BME280;25666;44.350;9.222;2023-07-29T11:07:45;101495.66;;;27.63;100.00
32324;BME280;25666;44.350;9.222;2023-07-29T11:10:12;101492.78;;;27.63;100.00
32324;BME280;25666;44.350;9.222;2023-07-29T11:12:42;101497.84;;;27.43;100.00
32324;BME280;25666;44.350;9.222;2023-07-29T11:15:12;101500.19;;;27.77;100.00
32324;BME280;25666;44.350;9.222;2023-07-29T11:20:08;101502.28;;;27.44;100.00
32324;BME280;25666;44.350;9.222;2023-07-29T11:22:34;101501.75;;;27.65;100.00
32324;BME280;25666;44.350;9.222;2023-07-29T11:25:00;101499.38;;;27.77;100.00
32324;BME280;25666;44.350;9.222;2023-07-29T11:27:25;101506.47;;;27.72;100.00
32324;BME280;25666;44.350;9.222;2023-07-29T11:30:03;101492.03;;;27.76;100.00
32324;BME280;25666;44.350;9.222;2023-07-29T11:32:31;101489.66;;;27.74;100.00
32324;BME280;25666;44.350;9.222;2023-07-29T11:35:00;101490.38;;;27.78;100.00
32324;BME280;25666;44.350;9.222;2023-07-29T11:37:26;101491.84;;;27.83;100.00
32324;BME280;25666;44.350;9.222;2023-07-29T11:39:52;101492.56;;;27.87;100.00
32324;BME280;25666;44.350;9.222;2023-07-29T11:42:17;101491.91;;;27.95;100.00
32324;BME280;25666;44.350;9.222;2023-07-29T11:44:43;101488.22;;;27.95;100.00
32324;BME280;25666;44.350;9.222;2023-07-29T11:47:10;101489.47;;;27.81;100.00
32324;BME280;25666;44.350;9.222;2023-07-29T11:49:37;101491.41;;;27.84;100.00
32324;BME280;25666;44.350;9.222;2023-07-29T11:52:04;101491.19;;;27.91;100.00
32324;BME280;25666;44.350;9.222;2023-07-29T11:54:31;101483.41;;;28.08;100.00
32324;BME280;25666;44.350;9.222;2023-07-29T11:56:56;101488.72;;;28.22;100.00
32324;BME280;25666;44.350;9.222;2023-07-29T11:59:23;101483.94;;;27.74;100.00
32324;BME280;25666;44.350;9.222;2023-07-29T12:01:48;101485.63;;;27.72;100.00
32324;BME280;25666;44.350;9.222;2023-07-29T12:04:14;101482.16;;;27.64;100.00
32324;BME280;25666;44.350;9.222;2023-07-29T12:06:40;101488.34;;;27.62;100.00
32324;BME280;25666;44.350;9.222;2023-07-29T12:09:06;101484.50;;;27.69;100.00
32324;BME280;25666;44.350;9.222;2023-07-29T12:11:33;101485.13;;;27.89;100.00
32324;BME280;25666;44.350;9.222;2023-07-29T12:14:02;101481.03;;;27.90;100.00
32324;BME280;25666;44.350;9.222;2023-07-29T12:16:27;101476.69;;;27.98;100.00
32324;BME280;25666;44.350;9.222;2023-07-29T12:19:00;101479.56;;;27.98;100.00
32324;BME280;25666;44.350;9.222;2023-07-29T12:21:25;101472.72;;;27.80;100.00
32324;BME280;25666;44.350;9.222;2023-07-29T12:23:51;101474.63;;;27.70;100.00
32324;BME280;25666;44.350;9.222;2023-07-29T12:26:17;101477.97;;;27.97;100.00
32324;BME280;25666;44.350;9.222;2023-07-29T12:28:46;101467.75;;;27.96;100.00
32324;BME280;25666;44.350;9.222;2023-07-29T12:31:12;101466.75;;;28.32;100.00
32324;BME280;25666;44.350;9.222;2023-07-29T12:33:37;101474.28;;;27.68;100.00
32324;BME280;25666;44.350;9.222;2023-07-29T12:36:04;101468.78;;;27.90;100.00
32324;BME280;25666;44.350;9.222;2023-07-29T12:38:30;101470.19;;;27.69;100.00
32324;BME280;25666;44.350;9.222;2023-07-29T12:40:56;101472.63;;;27.54;100.00
32324;BME280;25666;44.350;9.222;2023-07-29T12:43:21;101472.38;;;27.78;100.00
32324;BME280;25666;44.350;9.222;2023-07-29T12:45:50;101468.81;;;27.74;100.00
32324;BME280;25666;44.350;9.222;2023-07-29T12:48:16;101463.84;;;27.90;100.00
32324;BME280;25666;44.350;9.222;2023-07-29T12:50:41;101458.59;;;28.01;100.00
32324;BME280;25666;44.350;9.222;2023-07-29T12:53:08;101455.50;;;27.67;100.00
32324;BME280;25666;44.350;9.222;2023-07-29T12:55:35;101458.75;;;27.69;100.00